Time;durP1;ratioP1;P1;durP2;ratioP2;P2;SDS_P1;SDS_P2;PMS_P1;PMS_P2;Temp;Humidity;BMP_temperature;BMP_pressure;BME280_temperature;BME280_humidity;BME280_pressure;Samples;Min_cycle;Max_cycle;Signal;HPM_P1;HPM_P2
2021/04/09 00:00:58;;;;;;;;;;;;;;;2.20;65.13;101206.36;1806253;79;20250;-57
2021/04/09 00:04:03;;;;;;;;;;;;;;;2.21;65.11;101214.83;1806673;79;20288;-56
2021/04/09 00:07:07;;;;;;;;;;;;;;;2.21;64.99;101216.18;1806852;79;20288;-56
2021/04/09 00:10:13;;;;;;;;;;;;;;;2.18;64.87;101219.09;1806495;79;20625;-57
2021/04/09 00:13:17;;;;;;;;;;;;;;;2.16;64.83;101215.61;1806878;79;20269;-57
2021/04/09 00:16:22;;;;;;;;;;;;;;;2.11;64.91;101217.78;1806653;79;20296;-57
2021/04/09 00:19:29;;;;;;;;;;;;;;;2.08;64.93;101223.39;1806505;79;20272;-57
2021/04/09 00:22:32;;;;;;;;;;;;;;;2.04;64.97;101216.44;1806884;79;20272;-57
2021/04/09 00:25:36;;;;;;;;;;;;;;;2.03;65.00;101221.47;1806883;79;20257;-57
2021/04/09 00:28:40;;;;;;;;;;;;;;;1.98;64.89;101227.18;1806741;79;20625;-57
2021/04/09 00:31:45;;;;;;;;;;;;;;;1.91;64.77;101223.61;1806743;79;20241;-57
2021/04/09 00:34:51;;;;;;;;;;;;;;;1.81;64.87;101227.90;1806896;79;20201;-57
2021/04/09 00:37:56;;;;;;;;;;;;;;;1.74;64.98;101226.55;1806755;79;20265;-57
2021/04/09 00:40:59;;;;;;;;;;;;;;;1.67;65.17;101223.85;1809976;79;20229;-57
2021/04/09 00:44:05;;;;;;;;;;;;;;;1.61;65.37;101229.17;1806917;79;20304;-57
2021/04/09 00:47:08;;;;;;;;;;;;;;;1.59;65.52;101238.34;1805853;79;20676;-57
2021/04/09 00:50:13;;;;;;;;;;;;;;;1.57;65.70;101245.66;1773828;80;20270;-57
2021/04/09 00:53:21;;;;;;;;;;;;;;;1.59;65.81;101245.09;1773453;80;20284;-57
2021/04/09 00:56:27;;;;;;;;;;;;;;;1.56;65.89;101248.83;1773072;80;20589;-57
2021/04/09 00:59:33;;;;;;;;;;;;;;;1.55;66.07;101249.30;1773351;79;20241;-57
2021/04/09 01:02:37;;;;;;;;;;;;;;;1.60;66.18;101254.91;1772777;80;20233;-57
2021/04/09 01:05:42;;;;;;;;;;;;;;;1.61;66.07;101260.67;1773148;81;20527;-56
2021/04/09 01:08:47;;;;;;;;;;;;;;;1.62;66.15;101261.92;1773552;79;20723;-57
2021/04/09 01:11:51;;;;;;;;;;;;;;;1.63;66.17;101261.45;1773175;80;20290;-57
2021/04/09 01:14:55;;;;;;;;;;;;;;;1.65;66.14;101265.78;1773248;79;20190;-57
2021/04/09 01:18:21;;;;;;;;;;;;;;;1.67;66.07;101264.33;1773584;79;20206;-57
2021/04/09 01:21:33;;;;;;;;;;;;;;;1.68;66.02;101262.03;1773556;80;20289;-57
2021/04/09 01:25:14;;;;;;;;;;;;;;;1.65;65.72;101268.47;1773851;79;20546;-57
2021/04/09 01:28:35;;;;;;;;;;;;;;;1.55;65.66;101264.14;1772452;79;20237;-57
2021/04/09 01:31:55;;;;;;;;;;;;;;;1.49;65.82;101272.63;1773252;80;20354;-57
2021/04/09 01:35:03;;;;;;;;;;;;;;;1.50;65.98;101281.13;1773398;79;20316;-58
2021/04/09 01:38:11;;;;;;;;;;;;;;;1.51;65.93;101275.23;1773442;79;20277;-57
2021/04/09 01:41:18;;;;;;;;;;;;;;;1.47;65.89;101282.64;1773377;81;20213;-57
2021/04/09 01:44:22;;;;;;;;;;;;;;;1.38;65.63;101280.53;1772995;79;20245;-58
2021/04/09 01:47:31;;;;;;;;;;;;;;;1.29;65.70;101282.47;1772859;80;20240;-58
2021/04/09 01:50:35;;;;;;;;;;;;;;;1.31;66.23;101288.64;1803461;79;20692;-57
2021/04/09 01:53:39;;;;;;;;;;;;;;;1.37;66.36;101292.77;1806569;79;20221;-58
2021/04/09 01:56:42;;;;;;;;;;;;;;;1.42;66.28;101291.54;1806794;79;20272;-58
2021/04/09 01:59:47;;;;;;;;;;;;;;;1.41;66.05;101304.62;1806939;79;20311;-57
2021/04/09 02:02:55;;;;;;;;;;;;;;;1.32;65.86;101301.16;1806827;79;20276;-57
2021/04/09 02:05:59;;;;;;;;;;;;;;;1.22;65.84;101297.28;1806786;79;20225;-58
2021/04/09 02:09:04;;;;;;;;;;;;;;;1.12;66.02;101299.30;1806906;79;20273;-57
2021/04/09 02:12:09;;;;;;;;;;;;;;;1.09;66.35;101310.27;1806910;79;20266;-57
2021/04/09 02:15:18;;;;;;;;;;;;;;;1.11;66.53;101311.91;1806780;79;20273;-57
2021/04/09 02:18:22;;;;;;;;;;;;;;;1.11;66.38;101306.51;1806910;79;20213;-56
2021/04/09 02:21:26;;;;;;;;;;;;;;;1.07;66.37;101309.02;1806852;79;20312;-57
2021/04/09 02:24:30;;;;;;;;;;;;;;;1.07;66.43;101313.06;1806885;79;20550;-57
2021/04/09 02:27:35;;;;;;;;;;;;;;;1.08;66.35;101318.83;1806796;79;20256;-57
2021/04/09 02:30:39;;;;;;;;;;;;;;;1.06;66.40;101327.98;1806881;79;20276;-57
2021/04/09 02:33:45;;;;;;;;;;;;;;;1.08;66.56;101332.31;1806880;79;20266;-56
2021/04/09 02:36:49;;;;;;;;;;;;;;;1.10;66.59;101326.83;1806985;79;20418;-57
2021/04/09 02:39:55;;;;;;;;;;;;;;;1.04;66.37;101334.82;1806815;79;20281;-57
2021/04/09 02:42:59;;;;;;;;;;;;;;;0.98;66.36;101336.51;1806984;79;20300;-56
2021/04/09 02:46:04;;;;;;;;;;;;;;;0.92;66.32;101340.92;1806874;79;20225;-56
2021/04/09 02:49:11;;;;;;;;;;;;;;;0.90;66.63;101341.99;1806806;79;20280;-56
2021/04/09 02:52:20;;;;;;;;;;;;;;;0.90;66.84;101348.73;1806806;79;20284;-58
2021/04/09 02:55:26;;;;;;;;;;;;;;;0.95;66.94;101358.27;1806683;79;20185;-57
2021/04/09 02:58:29;;;;;;;;;;;;;;;0.94;66.76;101359.23;1806854;79;20216;-57
2021/04/09 03:01:36;;;;;;;;;;;;;;;0.85;66.52;101361.61;1806844;79;20300;-56
2021/04/09 03:04:42;;;;;;;;;;;;;;;0.81;66.84;101370.34;1806739;79;20201;-56
2021/04/09 03:07:47;;;;;;;;;;;;;;;0.84;66.99;101376.05;1806751;79;20284;-56
2021/04/09 03:10:51;;;;;;;;;;;;;;;0.83;66.80;101377.87;1806923;79;20213;-57
2021/04/09 03:13:54;;;;;;;;;;;;;;;0.75;66.69;101381.95;1806826;79;20280;-56
2021/04/09 03:17:05;;;;;;;;;;;;;;;0.67;66.68;101387.80;1806738;79;20249;-56
2021/04/09 03:20:11;;;;;;;;;;;;;;;0.63;66.94;101397.50;1806863;79;20225;-57
2021/04/09 03:23:14;;;;;;;;;;;;;;;0.64;67.36;101400.57;1806927;79;20315;-56
2021/04/09 03:26:19;;;;;;;;;;;;;;;0.74;67.59;101404.02;1806624;79;20249;-56
2021/04/09 03:29:23;;;;;;;;;;;;;;;0.79;67.70;101400.58;1806894;79;20320;-56
2021/04/09 03:32:28;;;;;;;;;;;;;;;0.86;67.66;101403.28;1806717;79;20237;-56
2021/04/09 03:35:31;;;;;;;;;;;;;;;0.94;67.51;101407.75;1806766;79;20249;-57
2021/04/09 03:38:35;;;;;;;;;;;;;;;0.95;67.44;101410.83;1806711;79;20519;-56
2021/04/09 03:41:39;;;;;;;;;;;;;;;0.96;67.38;101419.32;1806810;79;20213;-56
2021/04/09 03:44:43;;;;;;;;;;;;;;;1.01;67.50;101428.01;1806870;79;20310;-56
2021/04/09 03:47:47;;;;;;;;;;;;;;;1.03;67.26;101425.22;1806774;79;20304;-57
2021/04/09 03:50:51;;;;;;;;;;;;;;;1.03;67.45;101436.01;1774433;79;20731;-56
2021/04/09 03:53:56;;;;;;;;;;;;;;;1.09;67.76;101435.64;1771263;81;20322;-56
2021/04/09 03:57:00;;;;;;;;;;;;;;;1.20;67.90;101433.17;1771824;81;20258;-57
2021/04/09 04:00:04;;;;;;;;;;;;;;;1.29;67.93;101430.80;1771820;81;20269;-56
2021/04/09 04:03:10;;;;;;;;;;;;;;;1.38;67.88;101434.75;1771549;81;20344;-56
2021/04/09 04:06:15;;;;;;;;;;;;;;;1.46;67.91;101432.00;1771729;81;20504;-56
2021/04/09 04:09:19;;;;;;;;;;;;;;;1.49;67.67;101437.20;1771586;81;20262;-56
2021/04/09 04:12:24;;;;;;;;;;;;;;;1.56;67.91;101440.41;1771548;81;20828;-56
2021/04/09 04:15:29;;;;;;;;;;;;;;;1.65;68.12;101437.13;1771735;81;20321;-56
2021/04/09 04:18:32;;;;;;;;;;;;;;;1.78;68.18;101448.04;1771612;81;20217;-56
2021/04/09 04:21:36;;;;;;;;;;;;;;;1.89;68.13;101451.83;1771878;81;20210;-56
2021/04/09 04:24:40;;;;;;;;;;;;;;;2.02;68.10;101454.63;1771657;81;20198;-56
2021/04/09 04:27:44;;;;;;;;;;;;;;;2.14;68.02;101459.28;1771713;81;20282;-57
2021/04/09 04:30:52;;;;;;;;;;;;;;;2.26;67.95;101458.50;1771509;81;20281;-57
2021/04/09 04:33:57;;;;;;;;;;;;;;;2.36;67.93;101470.47;1771654;81;20197;-56
2021/04/09 04:37:00;;;;;;;;;;;;;;;2.46;67.86;101467.07;1771600;81;20265;-57
2021/04/09 04:40:04;;;;;;;;;;;;;;;2.56;67.79;101474.98;1771972;81;20285;-56
2021/04/09 04:43:09;;;;;;;;;;;;;;;2.67;67.70;101478.34;1771768;81;20210;-55
2021/04/09 04:46:14;;;;;;;;;;;;;;;2.77;67.60;101480.84;1771692;81;20241;-56
2021/04/09 04:49:18;;;;;;;;;;;;;;;2.89;67.48;101481.37;1771700;81;20609;-56
2021/04/09 04:52:25;;;;;;;;;;;;;;;3.02;67.33;101493.13;1770203;80;20290;-56
2021/04/09 04:55:29;;;;;;;;;;;;;;;3.15;67.18;101495.89;1771450;81;20292;-56
2021/04/09 04:58:33;;;;;;;;;;;;;;;3.29;66.94;101494.48;1766142;79;20191;-57
2021/04/09 05:01:40;;;;;;;;;;;;;;;3.43;66.80;101499.36;1790102;79;20285;-58
2021/04/09 05:04:43;;;;;;;;;;;;;;;3.56;66.59;101496.21;1780045;79;20626;-58
2021/04/09 05:07:47;;;;;;;;;;;;;;;3.67;66.42;101500.41;1803895;79;20217;-58
2021/04/09 05:10:51;;;;;;;;;;;;;;;3.77;66.31;101503.35;1805921;79;20209;-58
2021/04/09 05:13:55;;;;;;;;;;;;;;;3.90;66.09;101504.25;1805953;79;20277;-58
2021/04/09 05:17:00;;;;;;;;;;;;;;;4.02;65.83;101500.67;1806836;79;20217;-58
2021/04/09 05:20:05;;;;;;;;;;;;;;;4.14;65.49;101499.33;1806358;79;20626;-57
2021/04/09 05:23:14;;;;;;;;;;;;;;;4.27;65.14;101496.14;1806090;79;20264;-58
2021/04/09 05:26:17;;;;;;;;;;;;;;;4.39;64.85;101497.96;1806775;79;20205;-58
2021/04/09 05:29:21;;;;;;;;;;;;;;;4.51;64.52;101499.81;1806779;79;20310;-58
2021/04/09 05:32:26;;;;;;;;;;;;;;;4.66;64.33;101508.70;1807014;79;20554;-58
2021/04/09 05:35:30;;;;;;;;;;;;;;;4.80;64.10;101507.68;1806875;79;20543;-57
2021/04/09 05:38:35;;;;;;;;;;;;;;;4.95;63.82;101510.64;1806753;79;20284;-57
2021/04/09 05:41:39;;;;;;;;;;;;;;;5.05;62.94;101508.97;1804803;79;20273;-57
2021/04/09 05:44:44;;;;;;;;;;;;;;;5.12;62.33;101512.45;1781946;79;20592;-58
2021/04/09 05:47:48;;;;;;;;;;;;;;;5.18;61.97;101520.17;1781370;79;20222;-59
2021/04/09 05:50:54;;;;;;;;;;;;;;;5.27;61.74;101525.39;1782622;79;20742;-59
2021/04/09 05:53:58;;;;;;;;;;;;;;;5.36;61.57;101524.73;1764911;79;20284;-58
2021/04/09 05:57:01;;;;;;;;;;;;;;;5.43;61.47;101519.19;1776646;80;20281;-58
2021/04/09 06:00:05;;;;;;;;;;;;;;;5.55;61.29;101521.00;1767678;80;20204;-58
2021/04/09 06:03:11;;;;;;;;;;;;;;;5.70;60.87;101527.97;1711108;83;20213;-58
2021/04/09 06:06:18;;;;;;;;;;;;;;;5.80;60.19;101526.29;1711035;83;20293;-57
2021/04/09 06:09:22;;;;;;;;;;;;;;;5.93;59.90;101525.77;1724431;82;20251;-59
2021/04/09 06:12:25;;;;;;;;;;;;;;;6.05;59.68;101523.44;1723311;82;20188;-58
2021/04/09 06:15:29;;;;;;;;;;;;;;;6.16;59.50;101520.75;1741371;81;20288;-59
2021/04/09 06:18:34;;;;;;;;;;;;;;;6.29;59.26;101524.25;1761931;79;20237;-59
2021/04/09 06:21:42;;;;;;;;;;;;;;;6.42;59.01;101522.30;1792057;80;20508;-59
2021/04/09 06:24:49;;;;;;;;;;;;;;;6.56;58.44;101526.62;1788061;79;20204;-58
2021/04/09 06:27:54;;;;;;;;;;;;;;;6.70;58.36;101528.62;1792115;79;20221;-59
2021/04/09 06:30:59;;;;;;;;;;;;;;;6.81;57.90;101524.53;1792408;80;20210;-58
2021/04/09 06:34:04;;;;;;;;;;;;;;;6.97;57.64;101529.11;1791677;79;20209;-57
2021/04/09 06:37:07;;;;;;;;;;;;;;;7.10;57.11;101531.17;1792867;80;20348;-58
2021/04/09 06:40:12;;;;;;;;;;;;;;;7.21;56.91;101533.91;1793403;79;20296;-58
2021/04/09 06:43:15;;;;;;;;;;;;;;;7.30;56.41;101532.27;1793689;79;20622;-57
2021/04/09 06:46:20;;;;;;;;;;;;;;;7.43;55.87;101534.34;1793996;80;20289;-58
2021/04/09 06:49:25;;;;;;;;;;;;;;;7.56;55.29;101533.70;1792510;79;20221;-59
2021/04/09 06:52:30;;;;;;;;;;;;;;;7.68;54.81;101535.86;1792675;80;20273;-59
2021/04/09 06:55:35;;;;;;;;;;;;;;;7.80;54.55;101536.21;1802127;78;20292;-60
2021/04/09 06:58:40;;;;;;;;;;;;;;;7.93;53.72;101542.36;1806241;79;20469;-61
2021/04/09 07:01:45;;;;;;;;;;;;;;;8.00;52.62;101541.70;1792551;78;20300;-61
2021/04/09 07:04:52;;;;;;;;;;;;;;;8.08;51.07;101531.48;1793080;79;20284;-60
2021/04/09 07:07:57;;;;;;;;;;;;;;;8.10;50.46;101533.11;1777807;79;20280;-61
2021/04/09 07:11:02;;;;;;;;;;;;;;;8.19;50.13;101536.39;1774025;81;20215;-59
2021/04/09 07:14:08;;;;;;;;;;;;;;;8.27;49.78;101530.30;1774112;81;20559;-57
2021/04/09 07:17:14;;;;;;;;;;;;;;;8.33;49.60;101531.13;1792080;79;20281;-58
2021/04/09 07:20:32;;;;;;;;;;;;;;;8.41;48.74;101537.66;1792279;79;20205;-57
2021/04/09 07:23:35;;;;;;;;;;;;;;;8.47;46.95;101530.78;1768322;81;20236;-58
2021/04/09 07:26:48;;;;;;;;;;;;;;;8.53;46.43;101537.09;1799813;79;20706;-58
2021/04/09 07:29:52;;;;;;;;;;;;;;;8.60;46.35;101540.98;1806133;79;20244;-59
2021/04/09 07:32:56;;;;;;;;;;;;;;;8.68;45.55;101538.45;1806636;79;20209;-58
2021/04/09 07:36:02;;;;;;;;;;;;;;;8.74;45.48;101538.78;1806791;79;20249;-58
2021/04/09 07:39:06;;;;;;;;;;;;;;;8.82;45.10;101545.78;1806568;79;20237;-58
2021/04/09 07:42:14;;;;;;;;;;;;;;;8.86;44.21;101533.58;1806732;79;20209;-57
2021/04/09 07:45:22;;;;;;;;;;;;;;;8.92;43.19;101550.80;1801517;79;20289;-58
2021/04/09 07:48:29;;;;;;;;;;;;;;;8.97;43.19;101549.02;1806369;79;20205;-57
2021/04/09 07:51:37;;;;;;;;;;;;;;;9.02;43.38;101554.42;1801700;79;20700;-57
2021/04/09 07:54:42;;;;;;;;;;;;;;;9.13;43.21;101544.41;1804758;79;20271;-58
2021/04/09 07:57:50;;;;;;;;;;;;;;;9.24;42.53;101542.45;1794707;79;20296;-58
2021/04/09 08:00:58;;;;;;;;;;;;;;;9.36;42.35;101538.58;1738699;82;20237;-58
2021/04/09 08:04:03;;;;;;;;;;;;;;;9.46;41.63;101544.95;1738191;82;20273;-58
2021/04/09 08:07:07;;;;;;;;;;;;;;;9.51;41.25;101549.50;1738698;82;20214;-58
2021/04/09 08:10:14;;;;;;;;;;;;;;;9.54;41.21;101547.84;1738493;81;20274;-58
2021/04/09 08:13:22;;;;;;;;;;;;;;;9.69;40.37;101551.88;1735432;82;20281;-58
2021/04/09 08:16:39;;;;;;;;;;;;;;;9.79;39.63;101549.16;1714547;82;20218;-57
2021/04/09 08:19:48;;;;;;;;;;;;;;;9.74;38.77;101543.25;1738248;82;20250;-57
2021/04/09 08:22:55;;;;;;;;;;;;;;;9.70;38.21;101539.96;1784807;79;20217;-58
2021/04/09 08:26:06;;;;;;;;;;;;;;;9.79;38.43;101538.22;1778782;79;20504;-64
2021/04/09 08:29:21;;;;;;;;;;;;;;;9.90;38.12;101547.66;1772280;81;20569;-64
2021/04/09 08:32:26;;;;;;;;;;;;;;;9.98;38.15;101539.11;1772657;79;20217;-65
2021/04/09 08:35:34;;;;;;;;;;;;;;;10.23;38.32;101549.98;1768492;79;20235;-65
2021/04/09 08:38:39;;;;;;;;;;;;;;;10.47;37.86;101536.21;1806151;79;20213;-65
2021/04/09 08:41:49;;;;;;;;;;;;;;;10.70;37.25;101539.48;1806125;79;20214;-66
2021/04/09 08:44:53;;;;;;;;;;;;;;;10.95;36.47;101541.55;1806476;79;20280;-64
2021/04/09 08:48:02;;;;;;;;;;;;;;;11.18;36.01;101543.41;1806739;79;20205;-64
2021/04/09 08:51:07;;;;;;;;;;;;;;;11.35;34.90;101545.34;1806886;79;20241;-65
2021/04/09 08:54:31;;;;;;;;;;;;;;;11.34;33.78;101547.70;1806860;79;20585;-68
2021/04/09 08:57:45;;;;;;;;;;;;;;;11.23;34.68;101549.27;1786154;77;20636;-67
2021/04/09 09:00:52;;;;;;;;;;;;;;;11.26;34.25;101550.34;1762038;81;20326;-64
2021/04/09 09:03:58;;;;;;;;;;;;;;;11.28;34.47;101542.83;1761095;81;20549;-64
2021/04/09 09:07:06;;;;;;;;;;;;;;;11.39;33.57;101542.63;1749676;81;20201;-64
2021/04/09 09:10:39;;;;;;;;;;;;;;;11.57;33.47;101542.17;1738303;82;20213;-64
2021/04/09 09:13:50;;;;;;;;;;;;;;;11.81;33.57;101537.83;1738536;82;20242;-63
2021/04/09 09:16:56;;;;;;;;;;;;;;;11.89;33.84;101548.89;1738624;82;20656;-62
2021/04/09 09:20:11;;;;;;;;;;;;;;;11.83;33.59;101543.16;1761284;79;20210;-64
2021/04/09 09:23:18;;;;;;;;;;;;;;;11.81;33.56;101547.44;1790905;80;20314;-62
2021/04/09 09:26:37;;;;;;;;;;;;;;;11.78;32.09;101546.91;1782764;80;20317;-64
2021/04/09 09:29:47;;;;;;;;;;;;;;;11.72;31.41;101555.73;1739047;82;20205;-63
2021/04/09 09:32:50;;;;;;;;;;;;;;;11.72;31.52;101557.98;1738925;82;20295;-63
2021/04/09 09:36:16;;;;;;;;;;;;;;;11.78;32.11;101552.39;1739517;82;20566;-63
2021/04/09 09:39:22;;;;;;;;;;;;;;;11.76;32.42;101555.80;1739271;82;20221;-63
2021/04/09 09:42:33;;;;;;;;;;;;;;;11.75;32.89;101548.56;1739409;82;20253;-65
2021/04/09 09:45:41;;;;;;;;;;;;;;;11.87;33.38;101552.33;1748564;81;20184;-62
2021/04/09 09:48:46;;;;;;;;;;;;;;;11.77;33.16;101558.87;1768270;81;20548;-63
2021/04/09 09:51:50;;;;;;;;;;;;;;;11.59;33.51;101561.56;1768787;81;20215;-63
2021/04/09 09:54:55;;;;;;;;;;;;;;;11.57;33.80;101554.52;1769729;81;20215;-64
2021/04/09 09:58:04;;;;;;;;;;;;;;;11.56;33.83;101549.52;1763555;80;20210;-64
2021/04/09 10:01:13;;;;;;;;;;;;;;;11.48;33.31;101549.42;1789350;80;20293;-59
2021/04/09 10:04:24;;;;;;;;;;;;;;;11.28;32.25;101548.31;1793898;80;20289;-59
2021/04/09 10:07:31;;;;;;;;;;;;;;;11.25;32.35;101545.87;1764751;80;20310;-58
2021/04/09 10:10:44;;;;;;;;;;;;;;;11.43;32.24;101542.16;1767346;81;20311;-58
2021/04/09 10:13:50;;;;;;;;;;;;;;;11.71;32.14;101545.29;1767447;81;20208;-57
2021/04/09 10:16:54;;;;;;;;;;;;;;;12.08;31.41;101546.53;1768805;80;20534;-57
2021/04/09 10:20:08;;;;;;;;;;;;;;;12.29;31.26;101542.92;1789106;80;20331;-58
2021/04/09 10:23:15;;;;;;;;;;;;;;;12.43;30.84;101547.84;1761367;81;20211;-58
2021/04/09 10:26:22;;;;;;;;;;;;;;;12.44;31.26;101553.70;1761497;81;20200;-58
2021/04/09 10:29:29;;;;;;;;;;;;;;;12.39;31.56;101543.70;1774876;80;20232;-57
2021/04/09 10:32:35;;;;;;;;;;;;;;;12.38;31.47;101562.59;1782672;80;20299;-56
2021/04/09 10:35:43;;;;;;;;;;;;;;;12.21;30.77;101555.20;1765122;80;20216;-57
2021/04/09 10:38:51;;;;;;;;;;;;;;;12.13;31.43;101555.13;1770808;80;20229;-59
2021/04/09 10:41:57;;;;;;;;;;;;;;;12.13;30.95;101549.64;1790572;80;20217;-58
2021/04/09 10:45:02;;;;;;;;;;;;;;;12.11;30.70;101550.33;1753182;80;20285;-57
2021/04/09 10:48:07;;;;;;;;;;;;;;;12.10;30.55;101549.95;1744893;80;20630;-58
2021/04/09 10:51:16;;;;;;;;;;;;;;;12.13;30.75;101552.91;1701228;83;20543;-60
2021/04/09 10:54:24;;;;;;;;;;;;;;;12.32;30.95;101543.13;1715898;82;20222;-61
2021/04/09 10:57:28;;;;;;;;;;;;;;;12.57;30.46;101532.69;1729159;82;20266;-58
2021/04/09 11:00:35;;;;;;;;;;;;;;;12.62;30.25;101535.28;1708633;82;20527;-57
2021/04/09 11:03:39;;;;;;;;;;;;;;;12.71;29.96;101534.34;1803225;79;20569;-57
2021/04/09 11:06:45;;;;;;;;;;;;;;;12.80;28.98;101526.98;1806072;79;20537;-60
2021/04/09 11:09:57;;;;;;;;;;;;;;;12.96;29.12;101526.59;1788534;79;20253;-60
2021/04/09 11:13:01;;;;;;;;;;;;;;;13.07;28.32;101526.84;1776466;79;20288;-58
2021/04/09 11:16:05;;;;;;;;;;;;;;;13.20;28.53;101519.88;1775888;79;20249;-59
2021/04/09 11:19:15;;;;;;;;;;;;;;;13.39;28.29;101525.11;1774397;80;20275;-57
2021/04/09 11:22:25;;;;;;;;;;;;;;;13.74;27.74;101527.27;1784134;80;20281;-58
2021/04/09 11:25:31;;;;;;;;;;;;;;;14.16;27.73;101518.41;1802564;79;20280;-58
2021/04/09 11:28:36;;;;;;;;;;;;;;;14.53;27.74;101510.48;1781442;79;20802;-58
2021/04/09 11:31:41;;;;;;;;;;;;;;;14.97;28.76;101522.80;1806573;79;20297;-58
2021/04/09 11:34:46;;;;;;;;;;;;;;;15.25;27.08;101525.49;1806063;79;20277;-57
2021/04/09 11:37:55;;;;;;;;;;;;;;;15.41;26.90;101543.41;1806241;79;20281;-59
2021/04/09 11:41:02;;;;;;;;;;;;;;;15.17;26.01;101524.14;1805832;79;20285;-59
2021/04/09 11:44:06;;;;;;;;;;;;;;;14.80;26.04;101519.75;1798715;79;20712;-58
2021/04/09 11:47:29;;;;;;;;;;;;;;;14.63;26.47;101520.82;1803924;79;20566;-60
2021/04/09 11:50:38;;;;;;;;;;;;;;;14.28;26.59;101518.42;1805871;79;20550;-59
2021/04/09 11:53:42;;;;;;;;;;;;;;;13.77;27.72;101517.30;1797903;79;20621;-58
2021/04/09 11:56:54;;;;;;;;;;;;;;;13.64;28.22;101524.66;1806328;79;20774;-60
2021/04/09 11:59:59;;;;;;;;;;;;;;;13.59;28.44;101528.97;1773159;80;20283;-60
2021/04/09 12:03:14;;;;;;;;;;;;;;;13.46;28.07;101520.66;1774320;80;20267;-59
2021/04/09 12:06:23;;;;;;;;;;;;;;;13.31;28.64;101520.95;1774569;81;20279;-61
2021/04/09 12:09:28;;;;;;;;;;;;;;;13.23;28.87;101523.66;1774727;81;20275;-57
2021/04/09 12:12:34;;;;;;;;;;;;;;;13.18;28.40;101518.30;1785124;79;20173;-58
2021/04/09 12:15:37;;;;;;;;;;;;;;;13.14;28.30;101523.80;1806245;79;20280;-58
2021/04/09 12:18:43;;;;;;;;;;;;;;;13.08;28.28;101523.92;1794479;79;20563;-59
2021/04/09 12:21:48;;;;;;;;;;;;;;;13.04;28.26;101518.42;1772699;80;20597;-59
2021/04/09 12:24:54;;;;;;;;;;;;;;;13.00;27.76;101515.63;1782083;79;20217;-59
2021/04/09 12:27:59;;;;;;;;;;;;;;;13.00;27.58;101517.01;1796546;79;20573;-58
2021/04/09 12:31:05;;;;;;;;;;;;;;;13.13;27.52;101511.92;1744798;81;20271;-58
2021/04/09 12:34:09;;;;;;;;;;;;;;;13.49;27.47;101513.97;1755360;81;20251;-59
2021/04/09 12:37:14;;;;;;;;;;;;;;;13.92;27.16;101505.98;1805836;79;20225;-59
2021/04/09 12:40:19;;;;;;;;;;;;;;;14.24;26.62;101501.87;1803847;79;20271;-57
2021/04/09 12:43:24;;;;;;;;;;;;;;;14.65;26.57;101508.58;1802433;79;20237;-58
2021/04/09 12:46:30;;;;;;;;;;;;;;;14.98;26.17;101499.73;1804949;79;20236;-58
2021/04/09 12:49:35;;;;;;;;;;;;;;;15.25;25.91;101503.42;1798527;79;20281;-58
2021/04/09 12:52:40;;;;;;;;;;;;;;;15.40;25.88;101507.67;1806037;79;20277;-57
2021/04/09 12:55:45;;;;;;;;;;;;;;;15.44;25.90;101507.16;1805186;79;20292;-57
2021/04/09 12:58:50;;;;;;;;;;;;;;;15.44;25.80;101511.30;1805858;79;20269;-59
2021/04/09 13:01:55;;;;;;;;;;;;;;;15.37;25.88;101511.63;1803577;79;20217;-58
2021/04/09 13:05:04;;;;;;;;;;;;;;;14.99;25.98;101506.95;1789796;80;20494;-58
2021/04/09 13:08:09;;;;;;;;;;;;;;;14.53;26.09;101500.84;1790113;80;20641;-59
2021/04/09 13:11:13;;;;;;;;;;;;;;;14.23;26.58;101496.01;1790846;80;20261;-58
2021/04/09 13:14:18;;;;;;;;;;;;;;;14.03;27.34;101498.77;1777383;79;20305;-58
2021/04/09 13:17:23;;;;;;;;;;;;;;;14.00;27.95;101497.73;1770510;81;20202;-58
2021/04/09 13:20:29;;;;;;;;;;;;;;;14.00;28.69;101496.36;1796371;79;20575;-59
2021/04/09 13:23:33;;;;;;;;;;;;;;;14.14;29.14;101493.79;1804835;79;20576;-57
2021/04/09 13:26:39;;;;;;;;;;;;;;;14.36;27.06;101494.51;1804887;79;20676;-57
2021/04/09 13:29:43;;;;;;;;;;;;;;;14.45;26.89;101493.95;1799694;79;20273;-58
2021/04/09 13:32:48;;;;;;;;;;;;;;;14.57;27.36;101493.97;1781681;79;20230;-58
2021/04/09 13:35:51;;;;;;;;;;;;;;;14.59;27.10;101503.77;1803048;79;20332;-58
2021/04/09 13:38:56;;;;;;;;;;;;;;;14.53;27.17;101496.70;1773340;81;20505;-56
2021/04/09 13:42:00;;;;;;;;;;;;;;;14.48;27.15;101499.12;1773958;80;20620;-58
2021/04/09 13:45:06;;;;;;;;;;;;;;;14.40;27.40;101494.48;1799243;79;20774;-59
2021/04/09 13:48:11;;;;;;;;;;;;;;;14.35;28.05;101502.95;1804686;79;20206;-58
2021/04/09 13:51:17;;;;;;;;;;;;;;;14.28;28.32;101508.78;1805384;79;20213;-57
2021/04/09 13:54:23;;;;;;;;;;;;;;;14.16;26.76;101510.14;1774159;79;20273;-59
2021/04/09 13:57:28;;;;;;;;;;;;;;;14.00;26.54;101510.12;1777150;79;20288;-58
2021/04/09 14:00:35;;;;;;;;;;;;;;;13.78;26.61;101517.66;1805590;79;20304;-57
2021/04/09 14:03:40;;;;;;;;;;;;;;;13.61;26.26;101514.00;1780107;80;20241;-58
2021/04/09 14:06:45;;;;;;;;;;;;;;;13.41;25.88;101518.91;1774441;79;20347;-58
2021/04/09 14:09:50;;;;;;;;;;;;;;;13.36;26.38;101514.45;1768572;80;20246;-57
2021/04/09 14:12:55;;;;;;;;;;;;;;;13.37;26.18;101510.66;1768451;81;20281;-58
2021/04/09 14:16:00;;;;;;;;;;;;;;;13.39;26.67;101512.73;1771929;80;20304;-57
2021/04/09 14:19:06;;;;;;;;;;;;;;;13.40;26.24;101511.70;1753330;81;20271;-57
2021/04/09 14:22:10;;;;;;;;;;;;;;;13.28;26.34;101511.66;1767943;80;20236;-58
2021/04/09 14:25:15;;;;;;;;;;;;;;;13.34;26.26;101516.99;1754709;80;20267;-57
2021/04/09 14:28:20;;;;;;;;;;;;;;;13.39;26.42;101521.48;1754387;80;20207;-58
2021/04/09 14:31:25;;;;;;;;;;;;;;;13.38;26.66;101510.16;1777054;80;20216;-57
2021/04/09 14:34:33;;;;;;;;;;;;;;;13.47;26.88;101503.14;1779161;79;20305;-58
2021/04/09 14:37:41;;;;;;;;;;;;;;;13.81;27.92;101507.69;1766980;79;20562;-57
2021/04/09 14:40:44;;;;;;;;;;;;;;;13.97;28.13;101509.93;1760852;80;20623;-57
2021/04/09 14:43:51;;;;;;;;;;;;;;;13.96;28.03;101514.23;1753243;81;20208;-56
2021/04/09 14:46:55;;;;;;;;;;;;;;;13.88;27.82;101507.34;1757568;80;20837;-56
2021/04/09 14:50:02;;;;;;;;;;;;;;;13.67;27.96;101509.73;1764481;80;20301;-57
2021/04/09 14:53:07;;;;;;;;;;;;;;;13.53;28.48;101523.09;1745860;81;20288;-59
2021/04/09 14:56:12;;;;;;;;;;;;;;;13.54;28.51;101515.17;1736183;81;20325;-59
2021/04/09 14:59:21;;;;;;;;;;;;;;;13.58;28.76;101525.34;1729614;81;20195;-59
2021/04/09 15:02:25;;;;;;;;;;;;;;;13.62;28.71;101524.50;1764602;78;20244;-59
2021/04/09 15:05:30;;;;;;;;;;;;;;;13.77;29.43;101522.80;1774092;81;20615;-60
2021/04/09 15:08:34;;;;;;;;;;;;;;;14.34;28.02;101518.60;1774506;81;20326;-60
2021/04/09 15:11:39;;;;;;;;;;;;;;;15.06;26.60;101523.14;1774699;81;20215;-59
2021/04/09 15:14:47;;;;;;;;;;;;;;;15.62;26.16;101525.69;1774016;80;20214;-60
2021/04/09 15:17:54;;;;;;;;;;;;;;;15.73;25.79;101525.27;1778011;79;20210;-59
2021/04/09 15:21:01;;;;;;;;;;;;;;;15.96;25.44;101524.80;1773084;79;20336;-60
2021/04/09 15:24:05;;;;;;;;;;;;;;;16.25;25.40;101534.58;1789640;79;20209;-59
2021/04/09 15:27:12;;;;;;;;;;;;;;;16.05;25.39;101535.25;1806116;79;20308;-60
2021/04/09 15:30:23;;;;;;;;;;;;;;;16.13;26.20;101536.06;1805997;79;20281;-59
2021/04/09 15:33:31;;;;;;;;;;;;;;;16.54;25.55;101536.62;1804664;79;20885;-58
2021/04/09 15:36:34;;;;;;;;;;;;;;;16.63;25.67;101536.03;1805671;79;20273;-60
2021/04/09 15:39:39;;;;;;;;;;;;;;;16.39;25.29;101556.43;1805442;79;20265;-60
2021/04/09 15:42:45;;;;;;;;;;;;;;;15.92;25.50;101552.97;1792660;79;20281;-59
2021/04/09 15:45:51;;;;;;;;;;;;;;;15.69;25.63;101559.83;1800226;79;20632;-59
2021/04/09 15:48:56;;;;;;;;;;;;;;;15.08;25.70;101561.03;1780518;79;20210;-59
2021/04/09 15:52:02;;;;;;;;;;;;;;;14.29;26.64;101553.19;1798944;79;20273;-59
2021/04/09 15:55:07;;;;;;;;;;;;;;;13.92;27.40;101563.80;1805855;79;20244;-59
2021/04/09 15:58:11;;;;;;;;;;;;;;;13.98;27.56;101567.24;1805058;79;20700;-59
2021/04/09 16:01:15;;;;;;;;;;;;;;;14.09;27.66;101560.91;1806293;79;20562;-58
2021/04/09 16:04:24;;;;;;;;;;;;;;;14.13;27.53;101561.44;1801925;79;20233;-58